sensor_id;sensor_type;location;lat;lon;timestamp;P1;durP1;ratioP1;P2;durP2;ratioP2
51459;SDS011;37534;39.772;2.718;2023-06-05T00:00:46;4.40;;;3.45;;
51459;SDS011;37534;39.772;2.718;2023-06-05T00:03:12;6.15;;;4.10;;
51459;SDS011;37534;39.772;2.718;2023-06-05T00:05:37;6.47;;;4.10;;
51459;SDS011;37534;39.772;2.718;2023-06-05T00:08:03;2.85;;;2.65;;
51459;SDS011;37534;39.772;2.718;2023-06-05T00:10:28;4.10;;;3.75;;
51459;SDS011;37534;39.772;2.718;2023-06-05T00:12:54;5.47;;;3.55;;
51459;SDS011;37534;39.772;2.718;2023-06-05T00:15:20;3.58;;;3.28;;
51459;SDS011;37534;39.772;2.718;2023-06-05T00:17:45;3.03;;;2.83;;
51459;SDS011;37534;39.772;2.718;2023-06-05T00:20:12;4.22;;;3.83;;
51459;SDS011;37534;39.772;2.718;2023-06-05T00:22:37;3.67;;;3.33;;
51459;SDS011;37534;39.772;2.718;2023-06-05T00:25:04;3.42;;;3.10;;
51459;SDS011;37534;39.772;2.718;2023-06-05T00:27:30;3.67;;;3.35;;
51459;SDS011;37534;39.772;2.718;2023-06-05T00:29:56;5.22;;;3.95;;
51459;SDS011;37534;39.772;2.718;2023-06-05T00:32:22;3.28;;;3.08;;
51459;SDS011;37534;39.772;2.718;2023-06-05T00:34:47;3.22;;;2.92;;
51459;SDS011;37534;39.772;2.718;2023-06-05T00:37:15;4.70;;;3.65;;
51459;SDS011;37534;39.772;2.718;2023-06-05T00:39:41;4.80;;;4.03;;
51459;SDS011;37534;39.772;2.718;2023-06-05T00:42:07;3.15;;;2.90;;
51459;SDS011;37534;39.772;2.718;2023-06-05T00:44:34;3.63;;;3.33;;
51459;SDS011;37534;39.772;2.718;2023-06-05T00:47:00;6.72;;;3.50;;
51459;SDS011;37534;39.772;2.718;2023-06-05T00:49:27;4.05;;;3.65;;
51459;SDS011;37534;39.772;2.718;2023-06-05T00:51:52;4.35;;;3.47;;
51459;SDS011;37534;39.772;2.718;2023-06-05T00:54:18;4.55;;;3.78;;
51459;SDS011;37534;39.772;2.718;2023-06-05T00:56:46;7.97;;;3.33;;
51459;SDS011;37534;39.772;2.718;2023-06-05T00:59:12;3.33;;;3.13;;
51459;SDS011;37534;39.772;2.718;2023-06-05T01:01:39;4.10;;;3.70;;
51459;SDS011;37534;39.772;2.718;2023-06-05T01:04:08;3.70;;;3.40;;
51459;SDS011;37534;39.772;2.718;2023-06-05T01:06:34;8.88;;;4.15;;
51459;SDS011;37534;39.772;2.718;2023-06-05T01:09:01;3.28;;;2.72;;
51459;SDS011;37534;39.772;2.718;2023-06-05T01:11:38;3.75;;;3.45;;
51459;SDS011;37534;39.772;2.718;2023-06-05T01:14:13;3.25;;;2.95;;
51459;SDS011;37534;39.772;2.718;2023-06-05T01:16:41;4.43;;;3.50;;
51459;SDS011;37534;39.772;2.718;2023-06-05T01:19:09;3.50;;;3.08;;
51459;SDS011;37534;39.772;2.718;2023-06-05T01:21:39;3.90;;;3.60;;
51459;SDS011;37534;39.772;2.718;2023-06-05T01:24:05;3.80;;;3.50;;
51459;SDS011;37534;39.772;2.718;2023-06-05T01:32:29;4.35;;;3.95;;
51459;SDS011;37534;39.772;2.718;2023-06-05T01:35:06;4.20;;;3.53;;
51459;SDS011;37534;39.772;2.718;2023-06-05T01:37:38;4.45;;;4.10;;
51459;SDS011;37534;39.772;2.718;2023-06-05T01:40:12;4.05;;;3.65;;
51459;SDS011;37534;39.772;2.718;2023-06-05T01:42:41;5.20;;;4.03;;
51459;SDS011;37534;39.772;2.718;2023-06-05T01:45:09;11.77;;;4.38;;
51459;SDS011;37534;39.772;2.718;2023-06-05T01:47:36;3.58;;;3.28;;
51459;SDS011;37534;39.772;2.718;2023-06-05T01:50:06;4.88;;;4.38;;
51459;SDS011;37534;39.772;2.718;2023-06-05T01:52:33;3.15;;;2.95;;
51459;SDS011;37534;39.772;2.718;2023-06-05T01:55:00;3.83;;;3.53;;
51459;SDS011;37534;39.772;2.718;2023-06-05T01:57:30;3.85;;;3.33;;
51459;SDS011;37534;39.772;2.718;2023-06-05T01:59:58;3.63;;;3.30;;
51459;SDS011;37534;39.772;2.718;2023-06-05T02:02:26;3.70;;;3.40;;
51459;SDS011;37534;39.772;2.718;2023-06-05T02:04:53;3.33;;;3.13;;
51459;SDS011;37534;39.772;2.718;2023-06-05T02:07:19;3.60;;;3.25;;
51459;SDS011;37534;39.772;2.718;2023-06-05T02:09:46;4.60;;;4.20;;
51459;SDS011;37534;39.772;2.718;2023-06-05T02:12:12;4.45;;;4.05;;
51459;SDS011;37534;39.772;2.718;2023-06-05T02:14:40;3.83;;;3.42;;
51459;SDS011;37534;39.772;2.718;2023-06-05T02:17:10;3.60;;;3.30;;
51459;SDS011;37534;39.772;2.718;2023-06-05T02:19:38;3.40;;;3.17;;
51459;SDS011;37534;39.772;2.718;2023-06-05T02:22:04;3.45;;;3.17;;
51459;SDS011;37534;39.772;2.718;2023-06-05T02:24:30;3.42;;;3.22;;
51459;SDS011;37534;39.772;2.718;2023-06-05T02:26:56;4.07;;;3.78;;
51459;SDS011;37534;39.772;2.718;2023-06-05T02:29:22;3.28;;;3.08;;
51459;SDS011;37534;39.772;2.718;2023-06-05T02:31:48;3.97;;;3.47;;
51459;SDS011;37534;39.772;2.718;2023-06-05T02:34:14;3.78;;;3.58;;
51459;SDS011;37534;39.772;2.718;2023-06-05T02:36:42;4.97;;;3.33;;
51459;SDS011;37534;39.772;2.718;2023-06-05T02:39:10;4.00;;;3.70;;
51459;SDS011;37534;39.772;2.718;2023-06-05T02:41:36;3.35;;;3.05;;
51459;SDS011;37534;39.772;2.718;2023-06-05T02:44:02;4.03;;;3.60;;
51459;SDS011;37534;39.772;2.718;2023-06-05T02:46:28;3.75;;;3.42;;
51459;SDS011;37534;39.772;2.718;2023-06-05T02:48:53;3.50;;;3.20;;
51459;SDS011;37534;39.772;2.718;2023-06-05T02:51:19;3.45;;;3.20;;
51459;SDS011;37534;39.772;2.718;2023-06-05T02:53:45;3.53;;;3.33;;
51459;SDS011;37534;39.772;2.718;2023-06-05T02:56:10;7.07;;;3.95;;
51459;SDS011;37534;39.772;2.718;2023-06-05T02:58:37;5.32;;;3.30;;
51459;SDS011;37534;39.772;2.718;2023-06-05T03:01:04;3.28;;;3.08;;
51459;SDS011;37534;39.772;2.718;2023-06-05T03:03:33;3.55;;;3.30;;
51459;SDS011;37534;39.772;2.718;2023-06-05T03:05:59;3.40;;;3.10;;
51459;SDS011;37534;39.772;2.718;2023-06-05T03:08:35;3.45;;;3.15;;
51459;SDS011;37534;39.772;2.718;2023-06-05T03:11:04;4.25;;;3.70;;
51459;SDS011;37534;39.772;2.718;2023-06-05T03:13:30;4.53;;;4.13;;
51459;SDS011;37534;39.772;2.718;2023-06-05T03:15:57;3.28;;;3.08;;
51459;SDS011;37534;39.772;2.718;2023-06-05T03:18:26;5.25;;;3.30;;
51459;SDS011;37534;39.772;2.718;2023-06-05T03:20:52;4.10;;;3.70;;
51459;SDS011;37534;39.772;2.718;2023-06-05T03:23:22;4.78;;;3.78;;
51459;SDS011;37534;39.772;2.718;2023-06-05T03:25:48;3.20;;;3.00;;
51459;SDS011;37534;39.772;2.718;2023-06-05T03:28:14;3.67;;;3.35;;
51459;SDS011;37534;39.772;2.718;2023-06-05T03:30:40;3.65;;;3.40;;
51459;SDS011;37534;39.772;2.718;2023-06-05T03:33:06;4.10;;;3.45;;
51459;SDS011;37534;39.772;2.718;2023-06-05T03:35:32;4.10;;;3.78;;
51459;SDS011;37534;39.772;2.718;2023-06-05T03:37:58;4.53;;;4.13;;
51459;SDS011;37534;39.772;2.718;2023-06-05T03:40:24;9.00;;;3.67;;
51459;SDS011;37534;39.772;2.718;2023-06-05T03:42:49;3.67;;;3.40;;
51459;SDS011;37534;39.772;2.718;2023-06-05T03:45:15;3.58;;;3.28;;
51459;SDS011;37534;39.772;2.718;2023-06-05T03:47:41;4.00;;;3.67;;
51459;SDS011;37534;39.772;2.718;2023-06-05T03:50:09;4.70;;;4.30;;
51459;SDS011;37534;39.772;2.718;2023-06-05T03:52:35;4.20;;;3.90;;
51459;SDS011;37534;39.772;2.718;2023-06-05T03:55:02;3.72;;;3.35;;
51459;SDS011;37534;39.772;2.718;2023-06-05T03:57:30;4.13;;;3.75;;
51459;SDS011;37534;39.772;2.718;2023-06-05T03:59:57;3.72;;;3.42;;
51459;SDS011;37534;39.772;2.718;2023-06-05T04:02:22;6.07;;;4.32;;
51459;SDS011;37534;39.772;2.718;2023-06-05T04:04:48;4.78;;;4.30;;
51459;SDS011;37534;39.772;2.718;2023-06-05T04:07:15;5.53;;;4.22;;
51459;SDS011;37534;39.772;2.718;2023-06-05T04:09:41;5.18;;;4.68;;
51459;SDS011;37534;39.772;2.718;2023-06-05T04:12:07;4.05;;;3.63;;
51459;SDS011;37534;39.772;2.718;2023-06-05T04:14:35;4.18;;;3.53;;
51459;SDS011;37534;39.772;2.718;2023-06-05T04:17:02;3.78;;;3.47;;
51459;SDS011;37534;39.772;2.718;2023-06-05T04:19:28;4.47;;;4.05;;
51459;SDS011;37534;39.772;2.718;2023-06-05T04:21:53;5.85;;;4.25;;
51459;SDS011;37534;39.772;2.718;2023-06-05T04:24:19;4.50;;;4.07;;
51459;SDS011;37534;39.772;2.718;2023-06-05T04:26:45;4.53;;;4.05;;
51459;SDS011;37534;39.772;2.718;2023-06-05T04:29:12;9.23;;;4.20;;
51459;SDS011;37534;39.772;2.718;2023-06-05T04:31:49;4.20;;;3.80;;
51459;SDS011;37534;39.772;2.718;2023-06-05T04:34:15;5.93;;;4.53;;
51459;SDS011;37534;39.772;2.718;2023-06-05T04:36:43;4.55;;;4.25;;
51459;SDS011;37534;39.772;2.718;2023-06-05T04:39:09;3.72;;;3.45;;
51459;SDS011;37534;39.772;2.718;2023-06-05T04:41:43;4.75;;;4.20;;
51459;SDS011;37534;39.772;2.718;2023-06-05T04:44:14;14.25;;;4.65;;
51459;SDS011;37534;39.772;2.718;2023-06-05T04:46:44;5.88;;;3.88;;
51459;SDS011;37534;39.772;2.718;2023-06-05T04:49:14;4.20;;;3.80;;
51459;SDS011;37534;39.772;2.718;2023-06-05T04:51:41;4.38;;;4.07;;
51459;SDS011;37534;39.772;2.718;2023-06-05T04:54:09;4.63;;;4.15;;
51459;SDS011;37534;39.772;2.718;2023-06-05T04:56:35;6.20;;;4.82;;
51459;SDS011;37534;39.772;2.718;2023-06-05T04:59:02;3.90;;;3.63;;
51459;SDS011;37534;39.772;2.718;2023-06-05T05:01:31;5.63;;;4.45;;
51459;SDS011;37534;39.772;2.718;2023-06-05T05:03:58;7.28;;;3.72;;
51459;SDS011;37534;39.772;2.718;2023-06-05T05:06:24;4.47;;;4.18;;
51459;SDS011;37534;39.772;2.718;2023-06-05T05:08:50;3.35;;;3.15;;
51459;SDS011;37534;39.772;2.718;2023-06-05T05:11:16;6.50;;;4.03;;
51459;SDS011;37534;39.772;2.718;2023-06-05T05:13:42;5.82;;;4.13;;
51459;SDS011;37534;39.772;2.718;2023-06-05T05:16:08;8.73;;;6.00;;
51459;SDS011;37534;39.772;2.718;2023-06-05T05:18:35;28.42;;;6.10;;
51459;SDS011;37534;39.772;2.718;2023-06-05T05:21:02;5.55;;;5.05;;
51459;SDS011;37534;39.772;2.718;2023-06-05T05:23:30;5.70;;;4.70;;
51459;SDS011;37534;39.772;2.718;2023-06-05T05:25:56;7.68;;;4.80;;
51459;SDS011;37534;39.772;2.718;2023-06-05T05:28:21;9.60;;;4.90;;
51459;SDS011;37534;39.772;2.718;2023-06-05T05:30:47;8.48;;;4.78;;
51459;SDS011;37534;39.772;2.718;2023-06-05T05:33:12;8.23;;;5.35;;
51459;SDS011;37534;39.772;2.718;2023-06-05T05:35:39;4.95;;;4.45;;
51459;SDS011;37534;39.772;2.718;2023-06-05T05:38:05;5.72;;;5.07;;
51459;SDS011;37534;39.772;2.718;2023-06-05T05:40:31;5.32;;;4.82;;
51459;SDS011;37534;39.772;2.718;2023-06-05T05:42:57;5.50;;;4.55;;
51459;SDS011;37534;39.772;2.718;2023-06-05T05:45:22;8.73;;;4.47;;
51459;SDS011;37534;39.772;2.718;2023-06-05T05:47:48;4.95;;;4.45;;
51459;SDS011;37534;39.772;2.718;2023-06-05T05:50:13;4.95;;;4.55;;
51459;SDS011;37534;39.772;2.718;2023-06-05T05:52:39;7.35;;;5.38;;
51459;SDS011;37534;39.772;2.718;2023-06-05T05:55:05;7.85;;;5.53;;
51459;SDS011;37534;39.772;2.718;2023-06-05T05:57:31;5.35;;;4.72;;
51459;SDS011;37534;39.772;2.718;2023-06-05T05:59:57;5.95;;;4.43;;
51459;SDS011;37534;39.772;2.718;2023-06-05T06:02:22;9.48;;;5.30;;
51459;SDS011;37534;39.772;2.718;2023-06-05T06:04:48;5.32;;;4.82;;
51459;SDS011;37534;39.772;2.718;2023-06-05T06:07:14;16.00;;;4.63;;
51459;SDS011;37534;39.772;2.718;2023-06-05T06:09:40;7.10;;;4.60;;
51459;SDS011;37534;39.772;2.718;2023-06-05T06:12:06;7.55;;;4.18;;
51459;SDS011;37534;39.772;2.718;2023-06-05T06:14:35;5.95;;;4.20;;
51459;SDS011;37534;39.772;2.718;2023-06-05T06:17:00;8.40;;;4.13;;
51459;SDS011;37534;39.772;2.718;2023-06-05T06:19:27;4.65;;;4.22;;
51459;SDS011;37534;39.772;2.718;2023-06-05T06:21:54;13.00;;;4.95;;
51459;SDS011;37534;39.772;2.718;2023-06-05T06:24:20;5.82;;;4.72;;
51459;SDS011;37534;39.772;2.718;2023-06-05T06:26:46;5.00;;;4.32;;
51459;SDS011;37534;39.772;2.718;2023-06-05T06:29:19;8.85;;;4.90;;
51459;SDS011;37534;39.772;2.718;2023-06-05T06:31:45;4.88;;;4.47;;
51459;SDS011;37534;39.772;2.718;2023-06-05T06:34:11;5.55;;;3.90;;
51459;SDS011;37534;39.772;2.718;2023-06-05T06:36:37;4.80;;;3.63;;
51459;SDS011;37534;39.772;2.718;2023-06-05T06:39:08;3.55;;;3.25;;
51459;SDS011;37534;39.772;2.718;2023-06-05T06:41:35;4.00;;;3.70;;
51459;SDS011;37534;39.772;2.718;2023-06-05T06:44:02;4.15;;;3.75;;
51459;SDS011;37534;39.772;2.718;2023-06-05T06:46:28;3.28;;;2.97;;
51459;SDS011;37534;39.772;2.718;2023-06-05T06:48:55;4.40;;;2.63;;
51459;SDS011;37534;39.772;2.718;2023-06-05T06:51:20;3.85;;;3.00;;
51459;SDS011;37534;39.772;2.718;2023-06-05T06:53:49;7.32;;;4.90;;
51459;SDS011;37534;39.772;2.718;2023-06-05T06:56:16;3.90;;;3.60;;
51459;SDS011;37534;39.772;2.718;2023-06-05T06:58:43;6.25;;;3.47;;
51459;SDS011;37534;39.772;2.718;2023-06-05T07:01:08;5.82;;;4.95;;
51459;SDS011;37534;39.772;2.718;2023-06-05T07:03:36;9.88;;;5.50;;
51459;SDS011;37534;39.772;2.718;2023-06-05T07:06:02;8.40;;;6.20;;
51459;SDS011;37534;39.772;2.718;2023-06-05T07:08:27;10.95;;;7.60;;
51459;SDS011;37534;39.772;2.718;2023-06-05T07:10:53;7.10;;;5.03;;
51459;SDS011;37534;39.772;2.718;2023-06-05T07:13:22;3.88;;;3.25;;
51459;SDS011;37534;39.772;2.718;2023-06-05T07:15:48;22.00;;;3.38;;
51459;SDS011;37534;39.772;2.718;2023-06-05T07:18:14;4.28;;;3.53;;
51459;SDS011;37534;39.772;2.718;2023-06-05T07:20:42;4.57;;;2.33;;
51459;SDS011;37534;39.772;2.718;2023-06-05T07:23:08;2.72;;;2.42;;
51459;SDS011;37534;39.772;2.718;2023-06-05T07:25:33;2.75;;;2.55;;
51459;SDS011;37534;39.772;2.718;2023-06-05T07:27:59;3.88;;;2.67;;
51459;SDS011;37534;39.772;2.718;2023-06-05T07:30:28;3.10;;;2.60;;
51459;SDS011;37534;39.772;2.718;2023-06-05T07:32:53;4.90;;;2.22;;
51459;SDS011;37534;39.772;2.718;2023-06-05T07:35:19;5.05;;;3.05;;
51459;SDS011;37534;39.772;2.718;2023-06-05T07:37:46;8.70;;;4.50;;
51459;SDS011;37534;39.772;2.718;2023-06-05T07:40:11;5.78;;;5.18;;
51459;SDS011;37534;39.772;2.718;2023-06-05T07:42:37;7.10;;;5.43;;
51459;SDS011;37534;39.772;2.718;2023-06-05T07:45:03;5.45;;;4.93;;
51459;SDS011;37534;39.772;2.718;2023-06-05T07:47:29;4.18;;;3.20;;
51459;SDS011;37534;39.772;2.718;2023-06-05T07:49:58;3.38;;;3.08;;
51459;SDS011;37534;39.772;2.718;2023-06-05T07:52:25;3.55;;;2.90;;
51459;SDS011;37534;39.772;2.718;2023-06-05T07:54:52;3.55;;;3.13;;
51459;SDS011;37534;39.772;2.718;2023-06-05T07:57:17;3.13;;;2.45;;
51459;SDS011;37534;39.772;2.718;2023-06-05T07:59:44;2.60;;;2.17;;
51459;SDS011;37534;39.772;2.718;2023-06-05T08:02:11;2.03;;;1.85;;
51459;SDS011;37534;39.772;2.718;2023-06-05T08:04:37;2.80;;;2.40;;
51459;SDS011;37534;39.772;2.718;2023-06-05T08:07:04;2.88;;;2.15;;
51459;SDS011;37534;39.772;2.718;2023-06-05T08:09:30;2.72;;;2.40;;
51459;SDS011;37534;39.772;2.718;2023-06-05T08:11:55;2.05;;;1.73;;
51459;SDS011;37534;39.772;2.718;2023-06-05T08:14:21;2.00;;;1.90;;
51459;SDS011;37534;39.772;2.718;2023-06-05T08:16:47;1.98;;;1.80;;
51459;SDS011;37534;39.772;2.718;2023-06-05T08:19:12;3.88;;;1.85;;
51459;SDS011;37534;39.772;2.718;2023-06-05T08:21:38;3.65;;;2.15;;
51459;SDS011;37534;39.772;2.718;2023-06-05T08:24:03;3.25;;;2.35;;
51459;SDS011;37534;39.772;2.718;2023-06-05T08:26:29;3.67;;;1.90;;
51459;SDS011;37534;39.772;2.718;2023-06-05T08:28:54;7.47;;;2.45;;
51459;SDS011;37534;39.772;2.718;2023-06-05T08:31:20;2.47;;;1.83;;
51459;SDS011;37534;39.772;2.718;2023-06-05T08:33:46;4.25;;;2.40;;
51459;SDS011;37534;39.772;2.718;2023-06-05T08:36:11;4.50;;;2.90;;
51459;SDS011;37534;39.772;2.718;2023-06-05T08:38:37;4.65;;;2.40;;
51459;SDS011;37534;39.772;2.718;2023-06-05T08:41:03;2.97;;;2.67;;
51459;SDS011;37534;39.772;2.718;2023-06-05T08:43:35;3.78;;;2.53;;
51459;SDS011;37534;39.772;2.718;2023-06-05T08:46:06;2.58;;;2.13;;
51459;SDS011;37534;39.772;2.718;2023-06-05T08:48:37;7.38;;;1.90;;
51459;SDS011;37534;39.772;2.718;2023-06-05T08:51:06;2.63;;;1.83;;
51459;SDS011;37534;39.772;2.718;2023-06-05T08:53:35;1.90;;;1.60;;
51459;SDS011;37534;39.772;2.718;2023-06-05T08:56:01;2.55;;;1.92;;
51459;SDS011;37534;39.772;2.718;2023-06-05T08:58:27;9.63;;;2.10;;
51459;SDS011;37534;39.772;2.718;2023-06-05T09:00:54;3.30;;;2.58;;
51459;SDS011;37534;39.772;2.718;2023-06-05T09:03:21;2.65;;;2.20;;
51459;SDS011;37534;39.772;2.718;2023-06-05T09:05:47;8.35;;;2.67;;
51459;SDS011;37534;39.772;2.718;2023-06-05T09:08:13;3.17;;;2.33;;
51459;SDS011;37534;39.772;2.718;2023-06-05T09:10:41;2.22;;;1.92;;
51459;SDS011;37534;39.772;2.718;2023-06-05T09:13:06;5.72;;;2.38;;
51459;SDS011;37534;39.772;2.718;2023-06-05T09:15:33;2.35;;;2.05;;
51459;SDS011;37534;39.772;2.718;2023-06-05T09:18:02;2.45;;;2.25;;
51459;SDS011;37534;39.772;2.718;2023-06-05T09:20:39;2.53;;;1.80;;
51459;SDS011;37534;39.772;2.718;2023-06-05T09:23:25;3.90;;;2.15;;
51459;SDS011;37534;39.772;2.718;2023-06-05T09:25:57;2.85;;;1.63;;
51459;SDS011;37534;39.772;2.718;2023-06-05T09:28:24;2.53;;;1.77;;
51459;SDS011;37534;39.772;2.718;2023-06-05T09:30:58;1.65;;;1.45;;
51459;SDS011;37534;39.772;2.718;2023-06-05T09:33:26;1.90;;;1.73;;
51459;SDS011;37534;39.772;2.718;2023-06-05T09:38:31;5.50;;;2.05;;
51459;SDS011;37534;39.772;2.718;2023-06-05T09:41:11;2.58;;;1.60;;
51459;SDS011;37534;39.772;2.718;2023-06-05T09:43:39;3.33;;;1.77;;
51459;SDS011;37534;39.772;2.718;2023-06-05T09:46:12;3.15;;;1.80;;
51459;SDS011;37534;39.772;2.718;2023-06-05T09:48:39;2.05;;;1.85;;
51459;SDS011;37534;39.772;2.718;2023-06-05T09:53:44;2.00;;;1.90;;
51459;SDS011;37534;39.772;2.718;2023-06-05T09:56:12;2.60;;;1.77;;
51459;SDS011;37534;39.772;2.718;2023-06-05T09:58:45;1.48;;;1.30;;
51459;SDS011;37534;39.772;2.718;2023-06-05T10:01:33;9.30;;;1.73;;
51459;SDS011;37534;39.772;2.718;2023-06-05T10:04:01;1.58;;;1.40;;
51459;SDS011;37534;39.772;2.718;2023-06-05T10:06:31;1.83;;;1.60;;
51459;SDS011;37534;39.772;2.718;2023-06-05T10:08:58;2.58;;;2.03;;
51459;SDS011;37534;39.772;2.718;2023-06-05T10:11:25;1.50;;;1.27;;
51459;SDS011;37534;39.772;2.718;2023-06-05T10:13:53;1.52;;;1.42;;
51459;SDS011;37534;39.772;2.718;2023-06-05T10:16:20;3.13;;;1.55;;
51459;SDS011;37534;39.772;2.718;2023-06-05T10:18:46;5.38;;;1.67;;
51459;SDS011;37534;39.772;2.718;2023-06-05T10:21:14;4.90;;;1.63;;
51459;SDS011;37534;39.772;2.718;2023-06-05T10:24:03;1.90;;;1.65;;
51459;SDS011;37534;39.772;2.718;2023-06-05T10:31:58;1.50;;;1.40;;
51459;SDS011;37534;39.772;2.718;2023-06-05T10:34:32;1.83;;;1.55;;
51459;SDS011;37534;39.772;2.718;2023-06-05T10:37:39;1.77;;;1.63;;
51459;SDS011;37534;39.772;2.718;2023-06-05T10:40:14;3.25;;;1.60;;
51459;SDS011;37534;39.772;2.718;2023-06-05T10:42:42;1.40;;;1.30;;
51459;SDS011;37534;39.772;2.718;2023-06-05T10:45:07;2.03;;;1.42;;
51459;SDS011;37534;39.772;2.718;2023-06-05T10:52:47;3.72;;;1.75;;
51459;SDS011;37534;39.772;2.718;2023-06-05T10:55:16;2.58;;;2.00;;
51459;SDS011;37534;39.772;2.718;2023-06-05T11:00:28;1.48;;;1.20;;
51459;SDS011;37534;39.772;2.718;2023-06-05T11:02:54;1.80;;;1.65;;
51459;SDS011;37534;39.772;2.718;2023-06-05T11:05:20;2.35;;;1.80;;
51459;SDS011;37534;39.772;2.718;2023-06-05T11:07:46;2.42;;;1.90;;
51459;SDS011;37534;39.772;2.718;2023-06-05T11:10:16;1.52;;;1.42;;
51459;SDS011;37534;39.772;2.718;2023-06-05T11:17:46;1.90;;;1.40;;
51459;SDS011;37534;39.772;2.718;2023-06-05T11:30:15;2.83;;;1.75;;
51459;SDS011;37534;39.772;2.718;2023-06-05T11:32:42;2.58;;;1.55;;
51459;SDS011;37534;39.772;2.718;2023-06-05T11:35:09;1.55;;;1.45;;
51459;SDS011;37534;39.772;2.718;2023-06-05T11:37:35;1.60;;;1.50;;
51459;SDS011;37534;39.772;2.718;2023-06-05T11:40:02;1.85;;;1.50;;
51459;SDS011;37534;39.772;2.718;2023-06-05T11:42:38;2.22;;;1.70;;
51459;SDS011;37534;39.772;2.718;2023-06-05T11:45:13;2.03;;;1.75;;
51459;SDS011;37534;39.772;2.718;2023-06-05T11:47:39;3.25;;;1.55;;
51459;SDS011;37534;39.772;2.718;2023-06-05T11:50:09;1.77;;;1.40;;
51459;SDS011;37534;39.772;2.718;2023-06-05T11:52:36;1.80;;;1.60;;
51459;SDS011;37534;39.772;2.718;2023-06-05T11:55:15;1.30;;;1.20;;
51459;SDS011;37534;39.772;2.718;2023-06-05T11:57:57;2.75;;;1.48;;
51459;SDS011;37534;39.772;2.718;2023-06-05T12:00:23;2.25;;;1.98;;
51459;SDS011;37534;39.772;2.718;2023-06-05T12:02:51;2.60;;;1.73;;
51459;SDS011;37534;39.772;2.718;2023-06-05T12:05:17;2.80;;;1.90;;
51459;SDS011;37534;39.772;2.718;2023-06-05T12:07:42;1.70;;;1.30;;
51459;SDS011;37534;39.772;2.718;2023-06-05T12:10:08;2.83;;;2.20;;
51459;SDS011;37534;39.772;2.718;2023-06-05T12:12:34;3.03;;;1.55;;
51459;SDS011;37534;39.772;2.718;2023-06-05T12:15:13;4.50;;;1.70;;
51459;SDS011;37534;39.772;2.718;2023-06-05T12:20:16;1.88;;;1.70;;
51459;SDS011;37534;39.772;2.718;2023-06-05T12:22:42;1.42;;;1.30;;
51459;SDS011;37534;39.772;2.718;2023-06-05T12:25:21;2.72;;;1.92;;
51459;SDS011;37534;39.772;2.718;2023-06-05T12:27:48;4.50;;;1.70;;
51459;SDS011;37534;39.772;2.718;2023-06-05T12:30:14;2.15;;;1.80;;
51459;SDS011;37534;39.772;2.718;2023-06-05T12:32:41;2.05;;;1.75;;
51459;SDS011;37534;39.772;2.718;2023-06-05T12:35:21;3.13;;;2.03;;
51459;SDS011;37534;39.772;2.718;2023-06-05T12:37:50;3.00;;;1.33;;
51459;SDS011;37534;39.772;2.718;2023-06-05T12:40:17;4.85;;;1.48;;
51459;SDS011;37534;39.772;2.718;2023-06-05T12:42:46;1.60;;;1.50;;
51459;SDS011;37534;39.772;2.718;2023-06-05T12:45:13;2.30;;;1.77;;
51459;SDS011;37534;39.772;2.718;2023-06-05T12:47:39;1.95;;;1.75;;
51459;SDS011;37534;39.772;2.718;2023-06-05T12:50:06;1.67;;;1.50;;
51459;SDS011;37534;39.772;2.718;2023-06-05T12:52:37;1.58;;;1.48;;
51459;SDS011;37534;39.772;2.718;2023-06-05T12:55:03;3.72;;;2.10;;
51459;SDS011;37534;39.772;2.718;2023-06-05T12:57:30;1.70;;;1.60;;
51459;SDS011;37534;39.772;2.718;2023-06-05T12:59:57;2.58;;;1.83;;
51459;SDS011;37534;39.772;2.718;2023-06-05T13:02:22;3.55;;;2.10;;
51459;SDS011;37534;39.772;2.718;2023-06-05T13:04:48;5.80;;;1.70;;
51459;SDS011;37534;39.772;2.718;2023-06-05T13:07:14;1.73;;;1.38;;
51459;SDS011;37534;39.772;2.718;2023-06-05T13:09:42;2.33;;;2.00;;
51459;SDS011;37534;39.772;2.718;2023-06-05T13:12:07;2.97;;;2.05;;
51459;SDS011;37534;39.772;2.718;2023-06-05T13:14:33;3.42;;;1.23;;
51459;SDS011;37534;39.772;2.718;2023-06-05T13:16:59;1.45;;;1.35;;
51459;SDS011;37534;39.772;2.718;2023-06-05T13:19:25;1.50;;;1.40;;
51459;SDS011;37534;39.772;2.718;2023-06-05T13:21:51;3.08;;;2.13;;
51459;SDS011;37534;39.772;2.718;2023-06-05T13:24:17;2.88;;;1.70;;
51459;SDS011;37534;39.772;2.718;2023-06-05T13:26:43;1.20;;;1.20;;
51459;SDS011;37534;39.772;2.718;2023-06-05T13:29:09;2.67;;;1.60;;
51459;SDS011;37534;39.772;2.718;2023-06-05T13:31:36;3.30;;;1.67;;
51459;SDS011;37534;39.772;2.718;2023-06-05T13:34:02;3.13;;;1.88;;
51459;SDS011;37534;39.772;2.718;2023-06-05T13:36:28;3.92;;;1.35;;
51459;SDS011;37534;39.772;2.718;2023-06-05T13:38:53;2.50;;;1.73;;
51459;SDS011;37534;39.772;2.718;2023-06-05T13:41:19;1.88;;;1.77;;
51459;SDS011;37534;39.772;2.718;2023-06-05T13:43:46;1.58;;;1.48;;
51459;SDS011;37534;39.772;2.718;2023-06-05T13:46:11;2.25;;;1.65;;
51459;SDS011;37534;39.772;2.718;2023-06-05T13:48:37;3.22;;;1.70;;
51459;SDS011;37534;39.772;2.718;2023-06-05T13:51:03;3.40;;;1.80;;
51459;SDS011;37534;39.772;2.718;2023-06-05T13:53:29;1.45;;;1.38;;
51459;SDS011;37534;39.772;2.718;2023-06-05T13:56:03;1.50;;;1.40;;
51459;SDS011;37534;39.772;2.718;2023-06-05T13:58:30;2.30;;;1.85;;
51459;SDS011;37534;39.772;2.718;2023-06-05T14:00:57;2.80;;;1.88;;
51459;SDS011;37534;39.772;2.718;2023-06-05T14:03:23;2.97;;;2.30;;
51459;SDS011;37534;39.772;2.718;2023-06-05T14:05:49;2.72;;;1.40;;
51459;SDS011;37534;39.772;2.718;2023-06-05T14:08:15;2.55;;;1.80;;
51459;SDS011;37534;39.772;2.718;2023-06-05T14:10:40;1.40;;;1.30;;
51459;SDS011;37534;39.772;2.718;2023-06-05T14:13:06;1.40;;;1.30;;
51459;SDS011;37534;39.772;2.718;2023-06-05T14:15:33;2.05;;;1.88;;
51459;SDS011;37534;39.772;2.718;2023-06-05T14:18:00;3.60;;;1.38;;
51459;SDS011;37534;39.772;2.718;2023-06-05T14:20:27;4.22;;;1.80;;
51459;SDS011;37534;39.772;2.718;2023-06-05T14:22:55;1.63;;;1.48;;
51459;SDS011;37534;39.772;2.718;2023-06-05T14:25:21;1.45;;;1.35;;
51459;SDS011;37534;39.772;2.718;2023-06-05T14:27:47;1.60;;;1.50;;
51459;SDS011;37534;39.772;2.718;2023-06-05T14:30:12;1.88;;;1.45;;
51459;SDS011;37534;39.772;2.718;2023-06-05T14:32:38;1.88;;;1.75;;
51459;SDS011;37534;39.772;2.718;2023-06-05T14:35:04;1.75;;;1.52;;
51459;SDS011;37534;39.772;2.718;2023-06-05T14:37:30;2.50;;;2.30;;
51459;SDS011;37534;39.772;2.718;2023-06-05T14:39:55;1.70;;;1.58;;
51459;SDS011;37534;39.772;2.718;2023-06-05T14:42:21;3.60;;;2.33;;
51459;SDS011;37534;39.772;2.718;2023-06-05T14:44:47;1.65;;;1.55;;
51459;SDS011;37534;39.772;2.718;2023-06-05T14:47:13;2.97;;;1.45;;
51459;SDS011;37534;39.772;2.718;2023-06-05T14:49:38;3.75;;;1.77;;
51459;SDS011;37534;39.772;2.718;2023-06-05T14:52:04;1.85;;;1.45;;
51459;SDS011;37534;39.772;2.718;2023-06-05T14:54:30;3.90;;;2.05;;
51459;SDS011;37534;39.772;2.718;2023-06-05T14:56:55;2.00;;;1.58;;
51459;SDS011;37534;39.772;2.718;2023-06-05T14:59:21;1.90;;;1.67;;
51459;SDS011;37534;39.772;2.718;2023-06-05T15:01:47;2.50;;;1.55;;
51459;SDS011;37534;39.772;2.718;2023-06-05T15:04:12;1.77;;;1.25;;
51459;SDS011;37534;39.772;2.718;2023-06-05T15:06:38;5.88;;;1.33;;
51459;SDS011;37534;39.772;2.718;2023-06-05T15:09:03;2.42;;;1.80;;
51459;SDS011;37534;39.772;2.718;2023-06-05T15:11:29;1.48;;;1.20;;
51459;SDS011;37534;39.772;2.718;2023-06-05T15:13:55;1.98;;;1.48;;
51459;SDS011;37534;39.772;2.718;2023-06-05T15:16:20;3.75;;;1.50;;
51459;SDS011;37534;39.772;2.718;2023-06-05T15:18:46;1.90;;;1.40;;
51459;SDS011;37534;39.772;2.718;2023-06-05T15:21:12;1.83;;;1.73;;
51459;SDS011;37534;39.772;2.718;2023-06-05T15:23:37;2.58;;;1.85;;
51459;SDS011;37534;39.772;2.718;2023-06-05T15:26:03;1.30;;;1.30;;
51459;SDS011;37534;39.772;2.718;2023-06-05T15:28:28;1.98;;;1.83;;
51459;SDS011;37534;39.772;2.718;2023-06-05T15:30:54;2.13;;;1.88;;